Islamorada, Florida
Current Conditions -  °F | °C
As of 4:53 AM on Monday 26 Jan 2015 (Local Time) from KMTH Reporting Station
Scattered Clouds Scattered Clouds  
Wind Chill: 19°   Ceiling: Unl
Heat Index: 19°   Visibility: 10mi
Dew Point: 13°   Wind: 6mph
Humidity: 70%   Direction: 260°W
Pressure: 29.98"   Gusts: NA
Location:  24.93°N, 80.63°W
Report Text: KMTH 260953Z AUTO 26005KT 10SM SCT048 19/13 A2998 RMK AO2 SLP151 T01890133
Loading
Personal Weather Stations






























Interactive Weather Map New forecast layout! Learn more

10-Day Weather Forecast

Advertisements
Track Severe Weather on mobile